sensor_id;sensor_type;location;lat;lon;timestamp;temperature;humidity
37204;DHT22;23098;48.054;10.636;2024-02-28T00:00:50;6.00;99.90
37204;DHT22;23098;48.054;10.636;2024-02-28T00:03:17;6.00;99.90
37204;DHT22;23098;48.054;10.636;2024-02-28T00:05:42;6.00;99.90
37204;DHT22;23098;48.054;10.636;2024-02-28T00:08:08;6.00;99.90
37204;DHT22;23098;48.054;10.636;2024-02-28T00:10:33;6.00;99.90
37204;DHT22;23098;48.054;10.636;2024-02-28T00:12:59;6.00;99.90
37204;DHT22;23098;48.054;10.636;2024-02-28T00:15:25;6.00;99.90
37204;DHT22;23098;48.054;10.636;2024-02-28T00:17:52;6.00;99.90
37204;DHT22;23098;48.054;10.636;2024-02-28T00:20:18;6.00;99.90
37204;DHT22;23098;48.054;10.636;2024-02-28T00:22:44;6.00;99.90
37204;DHT22;23098;48.054;10.636;2024-02-28T00:25:09;5.90;99.90
37204;DHT22;23098;48.054;10.636;2024-02-28T00:27:36;5.90;99.90
37204;DHT22;23098;48.054;10.636;2024-02-28T00:30:05;6.00;99.90
37204;DHT22;23098;48.054;10.636;2024-02-28T00:32:32;5.90;99.90
37204;DHT22;23098;48.054;10.636;2024-02-28T00:34:57;5.90;99.90
37204;DHT22;23098;48.054;10.636;2024-02-28T00:37:23;5.90;99.90
37204;DHT22;23098;48.054;10.636;2024-02-28T00:39:49;5.90;99.90
37204;DHT22;23098;48.054;10.636;2024-02-28T00:42:15;5.90;99.90
37204;DHT22;23098;48.054;10.636;2024-02-28T00:44:41;5.90;99.90
37204;DHT22;23098;48.054;10.636;2024-02-28T00:47:08;5.90;99.90
37204;DHT22;23098;48.054;10.636;2024-02-28T00:49:34;5.90;99.90
37204;DHT22;23098;48.054;10.636;2024-02-28T00:52:01;5.90;99.90
37204;DHT22;23098;48.054;10.636;2024-02-28T00:54:26;5.90;99.90
37204;DHT22;23098;48.054;10.636;2024-02-28T00:56:52;5.90;99.90
37204;DHT22;23098;48.054;10.636;2024-02-28T00:59:18;5.90;99.90
37204;DHT22;23098;48.054;10.636;2024-02-28T01:01:43;5.90;99.90
37204;DHT22;23098;48.054;10.636;2024-02-28T01:04:09;5.90;99.90
37204;DHT22;23098;48.054;10.636;2024-02-28T01:06:34;5.90;99.90
37204;DHT22;23098;48.054;10.636;2024-02-28T01:09:00;5.90;99.90
37204;DHT22;23098;48.054;10.636;2024-02-28T01:11:25;5.90;99.90
37204;DHT22;23098;48.054;10.636;2024-02-28T01:13:51;5.90;99.90
37204;DHT22;23098;48.054;10.636;2024-02-28T01:16:16;5.90;99.90
37204;DHT22;23098;48.054;10.636;2024-02-28T01:18:42;5.90;99.90
37204;DHT22;23098;48.054;10.636;2024-02-28T01:21:08;5.90;99.90
37204;DHT22;23098;48.054;10.636;2024-02-28T01:23:33;5.90;99.90
37204;DHT22;23098;48.054;10.636;2024-02-28T01:25:59;5.90;99.90
37204;DHT22;23098;48.054;10.636;2024-02-28T01:28:24;5.90;99.90
37204;DHT22;23098;48.054;10.636;2024-02-28T01:30:50;5.90;99.90
37204;DHT22;23098;48.054;10.636;2024-02-28T01:33:15;5.90;99.90
37204;DHT22;23098;48.054;10.636;2024-02-28T01:35:41;5.90;99.90
37204;DHT22;23098;48.054;10.636;2024-02-28T01:38:06;5.90;99.90
37204;DHT22;23098;48.054;10.636;2024-02-28T01:40:32;5.90;99.90
37204;DHT22;23098;48.054;10.636;2024-02-28T01:43:06;5.90;99.90
37204;DHT22;23098;48.054;10.636;2024-02-28T01:45:32;5.90;99.90
37204;DHT22;23098;48.054;10.636;2024-02-28T01:47:58;5.90;99.90
37204;DHT22;23098;48.054;10.636;2024-02-28T01:50:23;5.90;99.90
37204;DHT22;23098;48.054;10.636;2024-02-28T01:52:49;5.90;99.90
37204;DHT22;23098;48.054;10.636;2024-02-28T01:55:15;5.90;99.90
37204;DHT22;23098;48.054;10.636;2024-02-28T01:57:40;5.90;99.90
37204;DHT22;23098;48.054;10.636;2024-02-28T02:00:06;5.90;99.90
37204;DHT22;23098;48.054;10.636;2024-02-28T02:02:34;5.90;99.90
37204;DHT22;23098;48.054;10.636;2024-02-28T02:04:59;5.90;99.90
37204;DHT22;23098;48.054;10.636;2024-02-28T02:07:25;5.90;99.90
37204;DHT22;23098;48.054;10.636;2024-02-28T02:09:51;5.80;99.90
37204;DHT22;23098;48.054;10.636;2024-02-28T02:12:17;5.90;99.90
37204;DHT22;23098;48.054;10.636;2024-02-28T02:14:50;5.80;99.90
37204;DHT22;23098;48.054;10.636;2024-02-28T02:17:16;5.80;99.90
37204;DHT22;23098;48.054;10.636;2024-02-28T02:19:42;5.80;99.90
37204;DHT22;23098;48.054;10.636;2024-02-28T02:22:08;5.80;99.90
37204;DHT22;23098;48.054;10.636;2024-02-28T02:24:34;5.80;99.90
37204;DHT22;23098;48.054;10.636;2024-02-28T02:27:00;5.80;99.90
37204;DHT22;23098;48.054;10.636;2024-02-28T02:29:25;5.80;99.90
37204;DHT22;23098;48.054;10.636;2024-02-28T02:31:52;5.80;99.90
37204;DHT22;23098;48.054;10.636;2024-02-28T02:34:18;5.80;99.90
37204;DHT22;23098;48.054;10.636;2024-02-28T02:36:43;5.80;99.90
37204;DHT22;23098;48.054;10.636;2024-02-28T02:39:09;5.80;99.90
37204;DHT22;23098;48.054;10.636;2024-02-28T02:41:35;5.80;99.90
37204;DHT22;23098;48.054;10.636;2024-02-28T02:44:00;5.80;99.90
37204;DHT22;23098;48.054;10.636;2024-02-28T02:46:25;5.80;99.90
37204;DHT22;23098;48.054;10.636;2024-02-28T02:48:51;5.80;99.90
37204;DHT22;23098;48.054;10.636;2024-02-28T02:51:19;5.80;99.90
37204;DHT22;23098;48.054;10.636;2024-02-28T02:53:44;5.80;99.90
37204;DHT22;23098;48.054;10.636;2024-02-28T02:56:10;5.80;99.90
37204;DHT22;23098;48.054;10.636;2024-02-28T02:58:35;5.80;99.90
37204;DHT22;23098;48.054;10.636;2024-02-28T03:01:01;5.80;99.90
37204;DHT22;23098;48.054;10.636;2024-02-28T03:03:26;5.80;99.90
37204;DHT22;23098;48.054;10.636;2024-02-28T03:05:52;5.80;99.90
37204;DHT22;23098;48.054;10.636;2024-02-28T03:08:17;5.80;99.90
37204;DHT22;23098;48.054;10.636;2024-02-28T03:10:43;5.80;99.90
37204;DHT22;23098;48.054;10.636;2024-02-28T03:13:08;5.80;99.90
37204;DHT22;23098;48.054;10.636;2024-02-28T03:15:34;5.80;99.90
37204;DHT22;23098;48.054;10.636;2024-02-28T03:18:00;5.80;99.90
37204;DHT22;23098;48.054;10.636;2024-02-28T03:20:25;5.80;99.90
37204;DHT22;23098;48.054;10.636;2024-02-28T03:22:51;5.80;99.90
37204;DHT22;23098;48.054;10.636;2024-02-28T03:25:16;5.80;99.90
37204;DHT22;23098;48.054;10.636;2024-02-28T03:27:42;5.80;99.90
37204;DHT22;23098;48.054;10.636;2024-02-28T03:30:08;5.80;99.90
37204;DHT22;23098;48.054;10.636;2024-02-28T03:32:33;5.80;99.90
37204;DHT22;23098;48.054;10.636;2024-02-28T03:34:59;5.70;99.90
37204;DHT22;23098;48.054;10.636;2024-02-28T03:37:25;5.70;99.90
37204;DHT22;23098;48.054;10.636;2024-02-28T03:39:51;5.70;99.90
37204;DHT22;23098;48.054;10.636;2024-02-28T03:42:17;5.80;99.90
37204;DHT22;23098;48.054;10.636;2024-02-28T03:44:42;5.80;99.90
37204;DHT22;23098;48.054;10.636;2024-02-28T03:47:08;5.70;99.90
37204;DHT22;23098;48.054;10.636;2024-02-28T03:49:34;5.70;99.90
37204;DHT22;23098;48.054;10.636;2024-02-28T03:52:00;5.70;99.90
37204;DHT22;23098;48.054;10.636;2024-02-28T03:54:26;5.70;99.90
37204;DHT22;23098;48.054;10.636;2024-02-28T03:56:52;5.70;99.90
37204;DHT22;23098;48.054;10.636;2024-02-28T03:59:17;5.70;99.90
37204;DHT22;23098;48.054;10.636;2024-02-28T04:01:43;5.70;99.90
37204;DHT22;23098;48.054;10.636;2024-02-28T04:04:08;5.70;99.90
37204;DHT22;23098;48.054;10.636;2024-02-28T04:06:34;5.70;99.90
37204;DHT22;23098;48.054;10.636;2024-02-28T04:08:59;5.70;99.90
37204;DHT22;23098;48.054;10.636;2024-02-28T04:11:25;5.70;99.90
37204;DHT22;23098;48.054;10.636;2024-02-28T04:13:51;5.70;99.90
37204;DHT22;23098;48.054;10.636;2024-02-28T04:16:16;5.70;99.90
37204;DHT22;23098;48.054;10.636;2024-02-28T04:18:42;5.70;99.90
37204;DHT22;23098;48.054;10.636;2024-02-28T04:21:08;5.70;99.90
37204;DHT22;23098;48.054;10.636;2024-02-28T04:23:34;5.70;99.90
37204;DHT22;23098;48.054;10.636;2024-02-28T04:26:00;5.70;99.90
37204;DHT22;23098;48.054;10.636;2024-02-28T04:28:25;5.70;99.90
37204;DHT22;23098;48.054;10.636;2024-02-28T04:30:51;5.70;99.90
37204;DHT22;23098;48.054;10.636;2024-02-28T04:33:16;5.70;99.90
37204;DHT22;23098;48.054;10.636;2024-02-28T04:35:42;5.60;99.90
37204;DHT22;23098;48.054;10.636;2024-02-28T04:38:07;5.70;99.90
37204;DHT22;23098;48.054;10.636;2024-02-28T04:40:33;5.70;99.90
37204;DHT22;23098;48.054;10.636;2024-02-28T04:42:58;5.60;99.90
37204;DHT22;23098;48.054;10.636;2024-02-28T04:45:24;5.70;99.90
37204;DHT22;23098;48.054;10.636;2024-02-28T04:47:49;5.60;99.90
37204;DHT22;23098;48.054;10.636;2024-02-28T04:50:17;5.60;99.90
37204;DHT22;23098;48.054;10.636;2024-02-28T04:52:42;5.60;99.90
37204;DHT22;23098;48.054;10.636;2024-02-28T04:55:08;5.60;99.90
37204;DHT22;23098;48.054;10.636;2024-02-28T04:57:33;5.60;99.90
37204;DHT22;23098;48.054;10.636;2024-02-28T04:59:59;5.60;99.90
37204;DHT22;23098;48.054;10.636;2024-02-28T05:02:25;5.60;99.90
37204;DHT22;23098;48.054;10.636;2024-02-28T05:04:51;5.50;99.90
37204;DHT22;23098;48.054;10.636;2024-02-28T05:07:17;5.50;99.90
37204;DHT22;23098;48.054;10.636;2024-02-28T05:09:42;5.50;99.90
37204;DHT22;23098;48.054;10.636;2024-02-28T05:12:08;5.50;99.90
37204;DHT22;23098;48.054;10.636;2024-02-28T05:14:34;5.50;99.90
37204;DHT22;23098;48.054;10.636;2024-02-28T05:16:59;5.50;99.90
37204;DHT22;23098;48.054;10.636;2024-02-28T05:19:25;5.50;99.90
37204;DHT22;23098;48.054;10.636;2024-02-28T05:21:50;5.40;99.90
37204;DHT22;23098;48.054;10.636;2024-02-28T05:24:16;5.50;99.90
37204;DHT22;23098;48.054;10.636;2024-02-28T05:26:41;5.50;99.90
37204;DHT22;23098;48.054;10.636;2024-02-28T05:29:07;5.50;99.90
37204;DHT22;23098;48.054;10.636;2024-02-28T05:31:33;5.60;99.90
37204;DHT22;23098;48.054;10.636;2024-02-28T05:34:00;5.50;99.90
37204;DHT22;23098;48.054;10.636;2024-02-28T05:36:29;5.50;99.90
37204;DHT22;23098;48.054;10.636;2024-02-28T05:38:57;5.50;99.90
37204;DHT22;23098;48.054;10.636;2024-02-28T05:41:23;5.40;99.90
37204;DHT22;23098;48.054;10.636;2024-02-28T05:43:49;5.40;99.90
37204;DHT22;23098;48.054;10.636;2024-02-28T05:46:18;5.50;99.90
37204;DHT22;23098;48.054;10.636;2024-02-28T05:48:44;5.50;99.90
37204;DHT22;23098;48.054;10.636;2024-02-28T05:51:13;5.40;99.90
37204;DHT22;23098;48.054;10.636;2024-02-28T05:53:39;5.40;99.90
37204;DHT22;23098;48.054;10.636;2024-02-28T05:56:06;5.50;99.90
37204;DHT22;23098;48.054;10.636;2024-02-28T05:58:39;5.40;99.90
37204;DHT22;23098;48.054;10.636;2024-02-28T06:01:04;5.40;99.90
37204;DHT22;23098;48.054;10.636;2024-02-28T06:03:30;5.40;99.90
37204;DHT22;23098;48.054;10.636;2024-02-28T06:05:55;5.40;99.90
37204;DHT22;23098;48.054;10.636;2024-02-28T06:08:23;5.50;99.90
37204;DHT22;23098;48.054;10.636;2024-02-28T06:10:48;5.50;99.90
37204;DHT22;23098;48.054;10.636;2024-02-28T06:13:14;5.50;99.90
37204;DHT22;23098;48.054;10.636;2024-02-28T06:15:39;5.50;99.90
37204;DHT22;23098;48.054;10.636;2024-02-28T06:18:05;5.50;99.90
37204;DHT22;23098;48.054;10.636;2024-02-28T06:20:30;5.50;99.90
37204;DHT22;23098;48.054;10.636;2024-02-28T06:22:56;5.50;99.90
37204;DHT22;23098;48.054;10.636;2024-02-28T06:25:22;5.50;99.90
37204;DHT22;23098;48.054;10.636;2024-02-28T06:27:49;5.50;99.90
37204;DHT22;23098;48.054;10.636;2024-02-28T06:30:15;5.50;99.90
37204;DHT22;23098;48.054;10.636;2024-02-28T06:32:42;5.50;99.90
37204;DHT22;23098;48.054;10.636;2024-02-28T06:35:08;5.50;99.90
37204;DHT22;23098;48.054;10.636;2024-02-28T06:37:34;5.50;99.90
37204;DHT22;23098;48.054;10.636;2024-02-28T06:40:00;5.50;99.90
37204;DHT22;23098;48.054;10.636;2024-02-28T06:42:25;5.50;99.90
37204;DHT22;23098;48.054;10.636;2024-02-28T06:44:51;5.50;99.90
37204;DHT22;23098;48.054;10.636;2024-02-28T06:47:17;5.50;99.90
37204;DHT22;23098;48.054;10.636;2024-02-28T06:49:43;5.50;99.90
37204;DHT22;23098;48.054;10.636;2024-02-28T06:52:09;5.60;99.90
37204;DHT22;23098;48.054;10.636;2024-02-28T06:54:35;5.50;99.90
37204;DHT22;23098;48.054;10.636;2024-02-28T06:57:00;5.50;99.90
37204;DHT22;23098;48.054;10.636;2024-02-28T06:59:26;5.50;99.90
37204;DHT22;23098;48.054;10.636;2024-02-28T07:01:51;5.50;99.90
37204;DHT22;23098;48.054;10.636;2024-02-28T07:04:17;5.50;99.90
37204;DHT22;23098;48.054;10.636;2024-02-28T07:06:42;5.50;99.90
37204;DHT22;23098;48.054;10.636;2024-02-28T07:09:08;5.60;99.90
37204;DHT22;23098;48.054;10.636;2024-02-28T07:11:34;5.60;99.90
37204;DHT22;23098;48.054;10.636;2024-02-28T07:14:03;5.40;99.90
37204;DHT22;23098;48.054;10.636;2024-02-28T07:16:32;5.50;99.90
37204;DHT22;23098;48.054;10.636;2024-02-28T07:18:59;5.50;99.90
37204;DHT22;23098;48.054;10.636;2024-02-28T07:21:25;5.30;99.90
37204;DHT22;23098;48.054;10.636;2024-02-28T07:23:50;5.30;99.90
37204;DHT22;23098;48.054;10.636;2024-02-28T07:26:16;5.30;99.90
37204;DHT22;23098;48.054;10.636;2024-02-28T07:28:42;5.30;99.90
37204;DHT22;23098;48.054;10.636;2024-02-28T07:31:17;5.30;99.90
37204;DHT22;23098;48.054;10.636;2024-02-28T07:33:43;5.30;99.90
37204;DHT22;23098;48.054;10.636;2024-02-28T07:36:08;5.30;99.90
37204;DHT22;23098;48.054;10.636;2024-02-28T07:38:34;5.30;99.90
37204;DHT22;23098;48.054;10.636;2024-02-28T07:40:59;5.40;99.90
37204;DHT22;23098;48.054;10.636;2024-02-28T07:43:25;5.30;99.90
37204;DHT22;23098;48.054;10.636;2024-02-28T07:45:50;5.40;99.90
37204;DHT22;23098;48.054;10.636;2024-02-28T07:48:16;5.40;99.90
37204;DHT22;23098;48.054;10.636;2024-02-28T07:50:46;5.40;99.90
37204;DHT22;23098;48.054;10.636;2024-02-28T07:53:15;5.40;99.90
37204;DHT22;23098;48.054;10.636;2024-02-28T07:55:41;5.50;99.90
37204;DHT22;23098;48.054;10.636;2024-02-28T07:58:07;5.40;99.90
37204;DHT22;23098;48.054;10.636;2024-02-28T08:00:32;5.40;99.90
37204;DHT22;23098;48.054;10.636;2024-02-28T08:03:01;5.50;99.90
37204;DHT22;23098;48.054;10.636;2024-02-28T08:05:26;5.40;99.90
37204;DHT22;23098;48.054;10.636;2024-02-28T08:07:52;5.40;99.90
37204;DHT22;23098;48.054;10.636;2024-02-28T08:10:18;5.40;99.90
37204;DHT22;23098;48.054;10.636;2024-02-28T08:12:43;5.30;99.90
37204;DHT22;23098;48.054;10.636;2024-02-28T08:15:09;5.30;99.90
37204;DHT22;23098;48.054;10.636;2024-02-28T08:17:35;5.40;99.90
37204;DHT22;23098;48.054;10.636;2024-02-28T08:20:02;5.40;99.90
37204;DHT22;23098;48.054;10.636;2024-02-28T08:22:30;5.30;99.90
37204;DHT22;23098;48.054;10.636;2024-02-28T08:24:56;5.30;99.90
37204;DHT22;23098;48.054;10.636;2024-02-28T08:27:21;5.50;99.90
37204;DHT22;23098;48.054;10.636;2024-02-28T08:29:51;5.40;99.90
37204;DHT22;23098;48.054;10.636;2024-02-28T08:32:17;5.50;99.90
37204;DHT22;23098;48.054;10.636;2024-02-28T08:34:44;5.60;99.90
37204;DHT22;23098;48.054;10.636;2024-02-28T08:37:11;5.50;99.90
37204;DHT22;23098;48.054;10.636;2024-02-28T08:39:37;5.60;99.90
37204;DHT22;23098;48.054;10.636;2024-02-28T08:42:03;5.50;99.90
37204;DHT22;23098;48.054;10.636;2024-02-28T08:44:28;5.50;99.90
37204;DHT22;23098;48.054;10.636;2024-02-28T08:46:54;5.50;99.90
37204;DHT22;23098;48.054;10.636;2024-02-28T08:49:19;5.50;99.90
37204;DHT22;23098;48.054;10.636;2024-02-28T08:51:45;5.50;99.90
37204;DHT22;23098;48.054;10.636;2024-02-28T08:54:10;5.60;99.90
37204;DHT22;23098;48.054;10.636;2024-02-28T08:56:36;5.50;99.90
37204;DHT22;23098;48.054;10.636;2024-02-28T08:59:04;5.50;99.90
37204;DHT22;23098;48.054;10.636;2024-02-28T09:01:30;5.40;99.90
37204;DHT22;23098;48.054;10.636;2024-02-28T09:03:55;5.40;99.90
37204;DHT22;23098;48.054;10.636;2024-02-28T09:06:21;5.40;99.90
37204;DHT22;23098;48.054;10.636;2024-02-28T09:08:46;5.40;99.90
37204;DHT22;23098;48.054;10.636;2024-02-28T09:11:12;5.50;99.90
37204;DHT22;23098;48.054;10.636;2024-02-28T09:13:38;5.40;99.90
37204;DHT22;23098;48.054;10.636;2024-02-28T09:16:03;5.50;99.90
37204;DHT22;23098;48.054;10.636;2024-02-28T09:18:29;5.60;99.90
37204;DHT22;23098;48.054;10.636;2024-02-28T09:20:54;5.60;99.90
37204;DHT22;23098;48.054;10.636;2024-02-28T09:23:20;5.60;99.90
37204;DHT22;23098;48.054;10.636;2024-02-28T09:25:46;5.60;99.90
37204;DHT22;23098;48.054;10.636;2024-02-28T09:28:12;5.80;99.90
37204;DHT22;23098;48.054;10.636;2024-02-28T09:30:39;5.80;99.90
37204;DHT22;23098;48.054;10.636;2024-02-28T09:33:05;5.90;99.90
37204;DHT22;23098;48.054;10.636;2024-02-28T09:35:30;5.90;99.90
37204;DHT22;23098;48.054;10.636;2024-02-28T09:37:56;5.90;99.90
37204;DHT22;23098;48.054;10.636;2024-02-28T09:40:21;5.90;99.90
37204;DHT22;23098;48.054;10.636;2024-02-28T09:42:52;5.90;99.90
37204;DHT22;23098;48.054;10.636;2024-02-28T09:45:21;5.90;99.90
37204;DHT22;23098;48.054;10.636;2024-02-28T09:47:48;5.90;99.90
37204;DHT22;23098;48.054;10.636;2024-02-28T09:50:14;6.00;99.90
37204;DHT22;23098;48.054;10.636;2024-02-28T09:52:40;6.10;99.90
37204;DHT22;23098;48.054;10.636;2024-02-28T09:55:06;6.10;99.90
37204;DHT22;23098;48.054;10.636;2024-02-28T09:57:33;6.20;99.90
37204;DHT22;23098;48.054;10.636;2024-02-28T10:00:01;6.20;99.90
37204;DHT22;23098;48.054;10.636;2024-02-28T10:02:28;6.10;99.90
37204;DHT22;23098;48.054;10.636;2024-02-28T10:04:55;6.20;99.90
37204;DHT22;23098;48.054;10.636;2024-02-28T10:07:23;6.10;99.90
37204;DHT22;23098;48.054;10.636;2024-02-28T10:09:48;6.00;99.90
37204;DHT22;23098;48.054;10.636;2024-02-28T10:12:14;6.20;99.90
37204;DHT22;23098;48.054;10.636;2024-02-28T10:14:40;6.30;99.90
37204;DHT22;23098;48.054;10.636;2024-02-28T10:17:05;6.30;99.90
37204;DHT22;23098;48.054;10.636;2024-02-28T10:19:33;6.20;99.90
37204;DHT22;23098;48.054;10.636;2024-02-28T10:21:58;6.30;99.90
37204;DHT22;23098;48.054;10.636;2024-02-28T10:24:24;6.30;99.90
37204;DHT22;23098;48.054;10.636;2024-02-28T10:26:50;6.40;99.90
37204;DHT22;23098;48.054;10.636;2024-02-28T10:29:22;6.50;99.90
37204;DHT22;23098;48.054;10.636;2024-02-28T10:31:48;6.50;99.90
37204;DHT22;23098;48.054;10.636;2024-02-28T10:34:16;6.50;99.90
37204;DHT22;23098;48.054;10.636;2024-02-28T10:36:43;6.40;99.90
37204;DHT22;23098;48.054;10.636;2024-02-28T10:39:11;6.50;99.90
37204;DHT22;23098;48.054;10.636;2024-02-28T10:41:38;6.40;99.90
37204;DHT22;23098;48.054;10.636;2024-02-28T10:44:04;6.50;99.90
37204;DHT22;23098;48.054;10.636;2024-02-28T10:46:30;6.50;99.90
37204;DHT22;23098;48.054;10.636;2024-02-28T10:48:56;6.50;99.90
37204;DHT22;23098;48.054;10.636;2024-02-28T10:51:26;6.40;99.90
37204;DHT22;23098;48.054;10.636;2024-02-28T10:54:08;6.50;99.90
37204;DHT22;23098;48.054;10.636;2024-02-28T10:56:35;6.40;99.90
37204;DHT22;23098;48.054;10.636;2024-02-28T10:59:01;6.40;99.90
37204;DHT22;23098;48.054;10.636;2024-02-28T11:01:28;6.30;99.90
37204;DHT22;23098;48.054;10.636;2024-02-28T11:03:54;6.20;99.90
37204;DHT22;23098;48.054;10.636;2024-02-28T11:06:21;6.20;99.90
37204;DHT22;23098;48.054;10.636;2024-02-28T11:08:48;6.00;99.90
37204;DHT22;23098;48.054;10.636;2024-02-28T11:11:21;5.90;99.90
37204;DHT22;23098;48.054;10.636;2024-02-28T11:13:54;5.90;99.90
37204;DHT22;23098;48.054;10.636;2024-02-28T11:16:31;6.00;99.90
37204;DHT22;23098;48.054;10.636;2024-02-28T11:18:58;5.80;99.90
37204;DHT22;23098;48.054;10.636;2024-02-28T11:21:28;5.90;99.90
37204;DHT22;23098;48.054;10.636;2024-02-28T11:24:00;5.90;99.90
37204;DHT22;23098;48.054;10.636;2024-02-28T11:26:27;5.90;99.90
37204;DHT22;23098;48.054;10.636;2024-02-28T11:28:54;6.00;99.90
37204;DHT22;23098;48.054;10.636;2024-02-28T11:31:21;6.00;99.90
37204;DHT22;23098;48.054;10.636;2024-02-28T11:33:46;5.80;99.90
37204;DHT22;23098;48.054;10.636;2024-02-28T11:36:12;5.90;99.90
37204;DHT22;23098;48.054;10.636;2024-02-28T11:38:41;6.10;99.90
37204;DHT22;23098;48.054;10.636;2024-02-28T11:41:07;6.10;99.90
37204;DHT22;23098;48.054;10.636;2024-02-28T11:43:33;6.20;99.90
37204;DHT22;23098;48.054;10.636;2024-02-28T11:46:00;6.10;99.90
37204;DHT22;23098;48.054;10.636;2024-02-28T11:48:26;6.00;99.90
37204;DHT22;23098;48.054;10.636;2024-02-28T11:50:53;5.90;99.90
37204;DHT22;23098;48.054;10.636;2024-02-28T11:53:19;5.90;99.90
37204;DHT22;23098;48.054;10.636;2024-02-28T11:55:46;6.00;99.90
37204;DHT22;23098;48.054;10.636;2024-02-28T11:58:13;6.00;99.90
37204;DHT22;23098;48.054;10.636;2024-02-28T12:00:48;6.10;99.90
37204;DHT22;23098;48.054;10.636;2024-02-28T12:03:17;6.20;99.90
37204;DHT22;23098;48.054;10.636;2024-02-28T12:05:45;6.20;99.90
37204;DHT22;23098;48.054;10.636;2024-02-28T12:08:11;6.20;99.90
37204;DHT22;23098;48.054;10.636;2024-02-28T12:10:36;6.20;99.90
37204;DHT22;23098;48.054;10.636;2024-02-28T12:13:02;5.90;99.90
37204;DHT22;23098;48.054;10.636;2024-02-28T12:15:32;5.80;99.90
37204;DHT22;23098;48.054;10.636;2024-02-28T12:17:58;5.90;99.90
37204;DHT22;23098;48.054;10.636;2024-02-28T12:20:24;6.00;99.90
37204;DHT22;23098;48.054;10.636;2024-02-28T12:22:49;6.10;99.90
37204;DHT22;23098;48.054;10.636;2024-02-28T12:25:15;5.90;99.90
37204;DHT22;23098;48.054;10.636;2024-02-28T12:27:40;6.00;99.90
37204;DHT22;23098;48.054;10.636;2024-02-28T12:30:06;6.10;99.90
37204;DHT22;23098;48.054;10.636;2024-02-28T12:32:32;6.10;99.90
37204;DHT22;23098;48.054;10.636;2024-02-28T12:34:58;6.20;99.90
37204;DHT22;23098;48.054;10.636;2024-02-28T12:37:23;6.20;99.90
37204;DHT22;23098;48.054;10.636;2024-02-28T12:39:49;6.10;99.90
37204;DHT22;23098;48.054;10.636;2024-02-28T12:42:16;6.10;99.90
37204;DHT22;23098;48.054;10.636;2024-02-28T12:44:42;6.10;99.90
37204;DHT22;23098;48.054;10.636;2024-02-28T12:47:12;6.20;99.90
37204;DHT22;23098;48.054;10.636;2024-02-28T12:49:38;6.20;99.90
37204;DHT22;23098;48.054;10.636;2024-02-28T12:52:04;6.30;99.90
37204;DHT22;23098;48.054;10.636;2024-02-28T12:54:30;6.20;99.90
37204;DHT22;23098;48.054;10.636;2024-02-28T12:56:55;6.20;99.90
37204;DHT22;23098;48.054;10.636;2024-02-28T12:59:21;6.20;99.90
37204;DHT22;23098;48.054;10.636;2024-02-28T13:01:46;6.10;99.90
37204;DHT22;23098;48.054;10.636;2024-02-28T13:04:13;6.10;99.90
37204;DHT22;23098;48.054;10.636;2024-02-28T13:06:39;6.30;99.90
37204;DHT22;23098;48.054;10.636;2024-02-28T13:09:05;6.40;99.90
37204;DHT22;23098;48.054;10.636;2024-02-28T13:11:37;6.30;99.90
37204;DHT22;23098;48.054;10.636;2024-02-28T13:14:03;6.20;99.90
37204;DHT22;23098;48.054;10.636;2024-02-28T13:16:28;6.10;99.90
37204;DHT22;23098;48.054;10.636;2024-02-28T13:18:54;6.00;99.90
37204;DHT22;23098;48.054;10.636;2024-02-28T13:21:19;6.00;99.90
37204;DHT22;23098;48.054;10.636;2024-02-28T13:23:45;6.10;99.90
37204;DHT22;23098;48.054;10.636;2024-02-28T13:26:11;6.10;99.90
37204;DHT22;23098;48.054;10.636;2024-02-28T13:28:45;6.20;99.90
37204;DHT22;23098;48.054;10.636;2024-02-28T13:31:11;6.30;99.90
37204;DHT22;23098;48.054;10.636;2024-02-28T13:33:38;6.20;99.90
37204;DHT22;23098;48.054;10.636;2024-02-28T13:36:03;6.10;99.90
37204;DHT22;23098;48.054;10.636;2024-02-28T13:38:29;6.20;99.90
37204;DHT22;23098;48.054;10.636;2024-02-28T13:40:55;6.20;99.90
37204;DHT22;23098;48.054;10.636;2024-02-28T13:43:21;6.20;99.90
37204;DHT22;23098;48.054;10.636;2024-02-28T13:45:48;6.10;99.90
37204;DHT22;23098;48.054;10.636;2024-02-28T13:48:22;6.10;99.90
37204;DHT22;23098;48.054;10.636;2024-02-28T13:50:49;6.20;99.90
37204;DHT22;23098;48.054;10.636;2024-02-28T13:53:15;6.20;99.90
37204;DHT22;23098;48.054;10.636;2024-02-28T13:55:42;6.30;99.90
37204;DHT22;23098;48.054;10.636;2024-02-28T13:58:11;6.40;99.90
37204;DHT22;23098;48.054;10.636;2024-02-28T14:00:37;6.10;99.90
37204;DHT22;23098;48.054;10.636;2024-02-28T14:03:04;6.40;99.90
37204;DHT22;23098;48.054;10.636;2024-02-28T14:05:30;6.50;99.90
37204;DHT22;23098;48.054;10.636;2024-02-28T14:07:55;6.60;99.90
37204;DHT22;23098;48.054;10.636;2024-02-28T14:10:23;6.40;99.90
37204;DHT22;23098;48.054;10.636;2024-02-28T14:12:49;6.10;99.90
37204;DHT22;23098;48.054;10.636;2024-02-28T14:15:15;6.20;99.90
37204;DHT22;23098;48.054;10.636;2024-02-28T14:17:40;6.20;99.90
37204;DHT22;23098;48.054;10.636;2024-02-28T14:20:06;6.20;99.90
37204;DHT22;23098;48.054;10.636;2024-02-28T14:22:32;6.30;99.90
37204;DHT22;23098;48.054;10.636;2024-02-28T14:24:59;6.30;99.90
37204;DHT22;23098;48.054;10.636;2024-02-28T14:27:25;6.30;99.90
37204;DHT22;23098;48.054;10.636;2024-02-28T14:29:55;6.30;99.90
37204;DHT22;23098;48.054;10.636;2024-02-28T14:32:21;6.30;99.90
37204;DHT22;23098;48.054;10.636;2024-02-28T14:34:47;6.30;99.90
37204;DHT22;23098;48.054;10.636;2024-02-28T14:37:14;6.30;99.90
37204;DHT22;23098;48.054;10.636;2024-02-28T14:39:39;6.40;99.90
37204;DHT22;23098;48.054;10.636;2024-02-28T14:42:05;6.50;99.90
37204;DHT22;23098;48.054;10.636;2024-02-28T14:44:34;6.40;99.90
37204;DHT22;23098;48.054;10.636;2024-02-28T14:46:59;6.50;99.90
37204;DHT22;23098;48.054;10.636;2024-02-28T14:49:25;6.50;99.90
37204;DHT22;23098;48.054;10.636;2024-02-28T14:51:50;6.30;99.90
37204;DHT22;23098;48.054;10.636;2024-02-28T14:54:17;6.30;99.90
37204;DHT22;23098;48.054;10.636;2024-02-28T14:56:45;6.30;99.90
37204;DHT22;23098;48.054;10.636;2024-02-28T14:59:10;6.40;99.90
37204;DHT22;23098;48.054;10.636;2024-02-28T15:01:36;6.40;99.90
37204;DHT22;23098;48.054;10.636;2024-02-28T15:04:02;6.50;99.90
37204;DHT22;23098;48.054;10.636;2024-02-28T15:06:27;6.50;99.90
37204;DHT22;23098;48.054;10.636;2024-02-28T15:08:53;6.50;99.90
37204;DHT22;23098;48.054;10.636;2024-02-28T15:11:18;6.50;99.90
37204;DHT22;23098;48.054;10.636;2024-02-28T15:13:44;6.60;99.90
37204;DHT22;23098;48.054;10.636;2024-02-28T15:16:09;6.70;99.90
37204;DHT22;23098;48.054;10.636;2024-02-28T15:18:36;6.70;99.90
37204;DHT22;23098;48.054;10.636;2024-02-28T15:21:02;6.80;99.90
37204;DHT22;23098;48.054;10.636;2024-02-28T15:23:28;6.80;99.90